Time;durP1;ratioP1;P1;durP2;ratioP2;P2;SDS_P1;SDS_P2;PMS_P1;PMS_P2;Temp;Humidity;BMP_temperature;BMP_pressure;BME280_temperature;BME280_humidity;BME280_pressure;Samples;Min_cycle;Max_cycle;Signal;HPM_P1;HPM_P2
2023/04/02 00:00:10;;;;;;;7.60;7.00;;;;;;;9.58;72.62;100968.47;5076182;28;20103;-65
2023/04/02 00:03:08;;;;;;;7.97;7.32;;;;;;;9.63;72.67;100967.78;5061426;28;20036;-65
2023/04/02 00:05:50;;;;;;;7.38;6.78;;;;;;;9.57;72.03;100982.59;5057149;28;20148;-66
2023/04/02 00:08:22;;;;;;;7.70;7.00;;;;;;;9.54;72.40;100974.75;5065184;28;20033;-65
2023/04/02 00:11:01;;;;;;;7.85;7.15;;;;;;;9.51;72.53;100984.41;5067822;28;20093;-65
2023/04/02 00:13:30;;;;;;;7.50;6.80;;;;;;;9.50;72.72;100984.63;5084112;28;20509;-65
2023/04/02 00:15:57;;;;;;;7.85;7.25;;;;;;;9.49;72.48;100985.72;5056010;28;20052;-65
2023/04/02 00:18:25;;;;;;;7.30;6.70;;;;;;;9.50;72.33;100999.34;5064974;28;20127;-65
2023/04/02 00:21:03;;;;;;;7.55;6.95;;;;;;;9.50;72.30;100996.56;5065676;28;20036;-65
2023/04/02 00:23:28;;;;;;;8.38;7.68;;;;;;;9.50;72.20;100998.50;5052056;28;20062;-64
2023/04/02 00:25:54;;;;;;;9.50;8.60;;;;;;;9.52;72.32;101007.44;5053040;28;20033;-65
2023/04/02 00:28:21;;;;;;;9.60;8.50;;;;;;;9.51;72.05;101012.13;5056533;28;20032;-64
2023/04/02 00:30:48;;;;;;;9.20;8.40;;;;;;;9.47;72.29;101016.47;5059625;28;20168;-65
2023/04/02 00:33:20;;;;;;;9.02;8.23;;;;;;;9.46;72.22;101017.53;5084989;28;20040;-65
2023/04/02 00:35:49;;;;;;;8.63;7.93;;;;;;;9.41;71.34;101022.97;5064496;28;20116;-64
2023/04/02 00:38:24;;;;;;;9.05;8.23;;;;;;;9.39;71.50;101027.88;5063183;28;20050;-63
2023/04/02 00:40:51;;;;;;;8.48;7.78;;;;;;;9.38;71.93;101031.75;5060380;28;20029;-64
2023/04/02 00:43:17;;;;;;;9.18;8.38;;;;;;;9.34;71.20;101034.16;5066581;28;20031;-64
2023/04/02 00:45:49;;;;;;;8.50;7.80;;;;;;;9.26;71.70;101042.81;5074684;28;20032;-64
2023/04/02 00:48:30;;;;;;;9.55;8.02;;;;;;;9.30;72.50;101043.19;5061035;28;20392;-64
2023/04/02 00:50:59;;;;;;;8.85;8.05;;;;;;;9.24;71.24;101046.94;5067099;28;20047;-64
2023/04/02 00:53:27;;;;;;;8.93;8.13;;;;;;;9.24;71.90;101042.25;5067649;28;20037;-64
2023/04/02 00:55:54;;;;;;;8.88;8.07;;;;;;;9.26;72.00;101053.91;5065658;28;20029;-64
2023/04/02 00:58:34;;;;;;;8.93;8.23;;;;;;;9.29;71.72;101063.66;5076585;28;20028;-64
2023/04/02 01:01:00;;;;;;;8.90;8.10;;;;;;;9.26;71.37;101064.97;5081354;28;20030;-64
2023/04/02 01:03:34;;;;;;;9.15;8.35;;;;;;;9.24;71.55;101067.16;5054113;28;20032;-64
2023/04/02 01:06:12;;;;;;;9.25;8.35;;;;;;;9.27;71.30;101068.59;5071539;28;20502;-64
2023/04/02 01:09:02;;;;;;;9.05;8.15;;;;;;;9.34;71.64;101083.19;5066230;28;20040;-64
2023/04/02 01:12:09;;;;;;;8.95;8.23;;;;;;;9.33;71.27;101087.03;5058049;28;20032;-64
2023/04/02 01:14:51;;;;;;;9.63;8.73;;;;;;;9.31;72.05;101083.66;4989728;28;20041;-65
2023/04/02 01:17:47;;;;;;;9.65;8.75;;;;;;;9.30;71.76;101090.28;5047058;28;20044;-64
2023/04/02 01:20:46;;;;;;;8.90;8.10;;;;;;;9.31;71.65;101103.91;5067032;28;20099;-64
2023/04/02 01:23:51;;;;;;;10.18;9.18;;;;;;;9.23;72.13;101103.38;5068661;28;20554;-63
2023/04/02 01:26:43;;;;;;;9.60;8.55;;;;;;;9.25;71.97;101107.63;5041776;28;20071;-64
2023/04/02 01:29:16;;;;;;;10.40;9.40;;;;;;;9.17;71.51;101098.81;5070246;28;20078;-64
2023/04/02 01:31:44;;;;;;;9.52;8.55;;;;;;;9.15;72.10;101109.28;5057547;28;20040;-65
2023/04/02 01:34:13;;;;;;;9.68;8.88;;;;;;;9.16;71.90;101111.81;5061886;28;20029;-64
2023/04/02 01:36:52;;;;;;;10.90;9.13;;;;;;;9.21;72.48;101113.88;5065048;28;20426;-64
2023/04/02 01:39:48;;;;;;;11.18;9.10;;;;;;;9.23;72.26;101122.78;5060713;28;20083;-64
2023/04/02 01:42:38;;;;;;;10.27;9.27;;;;;;;9.19;71.43;101125.19;5078889;28;20067;-64
2023/04/02 01:45:08;;;;;;;10.50;9.50;;;;;;;9.17;71.56;101132.06;5086023;28;20051;-64
2023/04/02 01:47:33;;;;;;;10.90;9.85;;;;;;;9.09;70.83;101131.31;5070587;28;20036;-64
2023/04/02 01:50:30;;;;;;;10.68;9.68;;;;;;;9.10;71.27;101138.53;5067087;28;20039;-64
2023/04/02 01:53:01;;;;;;;10.43;9.43;;;;;;;9.02;70.42;101140.78;5067992;28;20036;-63
2023/04/02 01:55:34;;;;;;;9.88;8.93;;;;;;;8.92;70.35;101163.53;5064481;28;20036;-64
2023/04/02 01:58:00;;;;;;;9.77;8.77;;;;;;;8.86;70.13;101158.91;5066969;28;20062;-64
2023/04/02 02:00:29;;;;;;;10.15;8.95;;;;;;;8.87;70.47;101162.53;5071608;28;20029;-63
2023/04/02 02:02:54;;;;;;;8.70;7.88;;;;;;;8.85;70.50;101157.22;5065964;28;20471;-64
2023/04/02 02:05:21;;;;;;;8.88;7.97;;;;;;;8.88;70.48;101165.03;5052588;28;20043;-64
2023/04/02 02:07:48;;;;;;;8.38;7.57;;;;;;;8.90;70.15;101170.38;5054973;28;20029;-64
2023/04/02 02:10:17;;;;;;;8.50;7.80;;;;;;;8.81;70.24;101167.91;5059052;28;20635;-64
2023/04/02 02:12:44;;;;;;;8.25;7.45;;;;;;;8.83;69.97;101173.22;5060266;28;20710;-64
2023/04/02 02:15:19;;;;;;;8.15;7.45;;;;;;;8.79;70.35;101183.06;5064484;28;20027;-64
2023/04/02 02:17:46;;;;;;;7.82;7.13;;;;;;;8.76;69.60;101181.63;5060230;28;20025;-64
2023/04/02 02:20:13;;;;;;;7.13;6.43;;;;;;;8.75;69.45;101192.91;5063831;28;20041;-64
2023/04/02 02:22:50;;;;;;;8.57;6.60;;;;;;;8.74;69.98;101196.75;5058227;28;20024;-64
2023/04/02 02:25:20;;;;;;;7.07;5.90;;;;;;;8.62;68.95;101198.63;5058370;28;20031;-64
2023/04/02 02:27:59;;;;;;;7.63;6.35;;;;;;;8.67;69.64;101209.84;5073357;28;20031;-64
2023/04/02 02:30:33;;;;;;;6.28;5.60;;;;;;;8.62;69.33;101215.22;5075063;28;20029;-64
2023/04/02 02:33:20;;;;;;;6.60;5.95;;;;;;;8.61;69.46;101208.84;5067859;28;20093;-66
2023/04/02 02:35:59;;;;;;;6.13;5.53;;;;;;;8.63;69.38;101225.22;5069949;28;20082;-64
2023/04/02 02:38:35;;;;;;;5.32;4.82;;;;;;;8.59;68.57;101230.34;5059077;28;20036;-64
2023/04/02 02:41:06;;;;;;;5.40;4.90;;;;;;;8.55;68.63;101224.44;5079894;28;20032;-64
2023/04/02 02:43:34;;;;;;;5.00;4.60;;;;;;;8.51;69.09;101234.28;5058034;28;20020;-63
2023/04/02 02:46:03;;;;;;;5.00;4.60;;;;;;;8.50;69.66;101238.13;5057199;28;20039;-64
2023/04/02 02:48:36;;;;;;;5.32;4.93;;;;;;;8.48;68.63;101245.78;5062793;28;20028;-64
2023/04/02 02:51:07;;;;;;;5.10;4.70;;;;;;;8.43;68.54;101253.94;5068964;28;20025;-64
2023/04/02 02:53:48;;;;;;;5.45;4.95;;;;;;;8.43;69.45;101265.00;5052868;28;20074;-64
2023/04/02 02:56:13;;;;;;;5.55;5.05;;;;;;;8.36;68.71;101253.13;5057470;28;20031;-64
2023/04/02 02:58:39;;;;;;;5.78;5.28;;;;;;;8.36;69.52;101266.97;5051646;28;20036;-64
2023/04/02 03:01:05;;;;;;;5.95;5.45;;;;;;;8.35;69.39;101260.59;5057884;28;20098;-63
2023/04/02 03:03:32;;;;;;;6.15;5.65;;;;;;;8.36;69.39;101264.19;5054033;28;20036;-64
2023/04/02 03:06:10;;;;;;;6.80;6.20;;;;;;;8.40;69.47;101272.91;5054511;28;20511;-64
2023/04/02 03:08:39;;;;;;;6.95;6.35;;;;;;;8.43;69.73;101276.06;5059423;28;20365;-63
2023/04/02 03:11:38;;;;;;;6.57;5.60;;;;;;;8.47;70.32;101282.00;5057888;28;20036;-63
2023/04/02 03:14:17;;;;;;;8.38;6.82;;;;;;;8.48;70.29;101289.22;5056012;28;20151;-64
2023/04/02 03:16:53;;;;;;;7.50;6.90;;;;;;;8.47;70.04;101293.91;5068977;28;20032;-64
2023/04/02 03:19:33;;;;;;;8.25;7.45;;;;;;;8.46;69.62;101307.97;5064035;28;20036;-64
2023/04/02 03:22:11;;;;;;;8.13;7.43;;;;;;;8.41;70.06;101308.66;5060980;28;20094;-64
2023/04/02 03:24:53;;;;;;;8.70;7.80;;;;;;;8.43;69.90;101313.97;5058688;27;20078;-64
2023/04/02 03:27:25;;;;;;;8.57;7.65;;;;;;;8.43;69.68;101316.72;5069884;28;20036;-64
2023/04/02 03:30:13;;;;;;;9.07;8.18;;;;;;;8.41;70.04;101327.16;5057882;28;20052;-63
2023/04/02 03:32:41;;;;;;;8.82;7.95;;;;;;;8.35;69.08;101332.50;5038153;28;20041;-64
2023/04/02 03:35:20;;;;;;;10.13;9.00;;;;;;;8.36;69.30;101348.00;5068955;28;20024;-64
2023/04/02 03:38:00;;;;;;;9.25;8.43;;;;;;;8.34;69.11;101350.19;5060333;28;20110;-64
2023/04/02 03:40:41;;;;;;;9.30;8.40;;;;;;;8.34;69.72;101352.94;5073162;28;20044;-64
2023/04/02 03:43:20;;;;;;;9.57;8.40;;;;;;;8.24;68.94;101360.03;5058854;28;20035;-64
2023/04/02 03:45:50;;;;;;;9.50;8.60;;;;;;;8.21;69.77;101360.50;5065827;28;20785;-64
2023/04/02 03:48:44;;;;;;;9.13;8.23;;;;;;;8.26;69.97;101369.81;5067302;28;20028;-64
2023/04/02 03:51:18;;;;;;;10.88;8.15;;;;;;;8.21;68.86;101379.84;5050437;28;20033;-63
2023/04/02 03:53:45;;;;;;;10.05;7.65;;;;;;;8.19;68.50;101382.00;5065126;28;20036;-64
2023/04/02 03:56:38;;;;;;;11.07;7.88;;;;;;;8.24;69.17;101390.47;5063959;28;20791;-64
2023/04/02 03:59:21;;;;;;;8.50;7.70;;;;;;;8.21;69.11;101382.63;5069012;28;20116;-64
2023/04/02 04:01:55;;;;;;;7.43;6.82;;;;;;;8.20;68.21;101394.75;5063446;28;20044;-64
2023/04/02 04:04:24;;;;;;;10.10;7.57;;;;;;;8.15;69.12;101402.88;5060237;28;20128;-64
2023/04/02 04:06:51;;;;;;;7.35;6.63;;;;;;;8.14;68.19;101399.28;5068675;28;20035;-64
2023/04/02 04:09:33;;;;;;;8.43;7.63;;;;;;;8.11;68.05;101403.31;5050495;28;20035;-64
2023/04/02 04:12:31;;;;;;;8.20;7.38;;;;;;;8.19;68.47;101398.59;5064640;28;20128;-64
2023/04/02 04:15:08;;;;;;;9.43;8.52;;;;;;;8.17;68.50;101417.31;5060101;28;20483;-64
2023/04/02 04:18:00;;;;;;;9.63;8.32;;;;;;;8.19;69.25;101420.72;5063365;28;20455;-64
2023/04/02 04:20:44;;;;;;;9.98;8.52;;;;;;;8.18;68.30;101425.41;5064539;28;20503;-64
2023/04/02 04:23:18;;;;;;;9.73;8.68;;;;;;;8.14;68.23;101439.91;5058786;28;20906;-64
2023/04/02 04:25:44;;;;;;;9.50;8.60;;;;;;;8.13;68.11;101447.31;5062499;28;20506;-64
2023/04/02 04:28:47;;;;;;;9.95;8.93;;;;;;;8.19;68.32;101451.13;5058624;28;20033;-64
2023/04/02 04:31:21;;;;;;;10.50;9.50;;;;;;;8.13;68.40;101452.84;5058167;28;20111;-64
2023/04/02 04:33:53;;;;;;;10.38;9.27;;;;;;;8.09;68.61;101463.50;5050115;28;20029;-64
2023/04/02 04:36:30;;;;;;;9.40;8.50;;;;;;;8.08;67.75;101461.81;5065377;28;20032;-64
2023/04/02 04:39:06;;;;;;;9.10;8.20;;;;;;;8.09;67.97;101471.81;5063136;28;20114;-64
2023/04/02 04:41:36;;;;;;;10.13;7.70;;;;;;;8.06;67.70;101477.81;5074965;28;20046;-64
2023/04/02 04:44:39;;;;;;;8.18;7.32;;;;;;;8.07;68.40;101487.78;5067520;28;20029;-64
2023/04/02 04:47:16;;;;;;;8.25;6.88;;;;;;;8.07;68.29;101498.00;5064600;28;20033;-64
2023/04/02 04:50:07;;;;;;;8.75;7.20;;;;;;;7.99;67.70;101504.63;5054210;28;21549;-64
2023/04/02 04:52:37;;;;;;;7.63;6.93;;;;;;;7.90;67.40;101508.72;5060229;28;20028;-64
2023/04/02 04:55:18;;;;;;;7.72;7.03;;;;;;;7.93;67.82;101521.25;5057427;28;20024;-64
2023/04/02 04:57:47;;;;;;;7.47;6.77;;;;;;;7.93;66.65;101513.78;5055247;28;20037;-64
2023/04/02 05:00:26;;;;;;;7.35;5.68;;;;;;;7.92;67.50;101520.41;5053009;28;20303;-64
2023/04/02 05:03:12;;;;;;;7.45;6.53;;;;;;;7.93;68.06;101530.38;5051881;28;20103;-63
2023/04/02 05:05:39;;;;;;;7.10;6.40;;;;;;;7.89;66.64;101534.66;5063870;28;20585;-64
2023/04/02 05:08:13;;;;;;;7.57;6.40;;;;;;;7.90;67.05;101538.25;5068958;28;20025;-64
2023/04/02 05:10:49;;;;;;;7.50;6.68;;;;;;;7.85;66.46;101537.00;5072439;28;20032;-64
2023/04/02 05:13:22;;;;;;;9.30;7.00;;;;;;;7.81;66.84;101548.72;5070837;28;20480;-63
2023/04/02 05:16:03;;;;;;;8.30;7.45;;;;;;;7.75;66.00;101557.88;5052662;28;20032;-64
2023/04/02 05:19:03;;;;;;;9.63;7.30;;;;;;;7.76;66.52;101568.72;5062909;28;20384;-64
2023/04/02 05:21:45;;;;;;;7.60;6.78;;;;;;;7.73;66.71;101562.78;5063821;28;20040;-64
2023/04/02 05:24:38;;;;;;;7.68;6.88;;;;;;;7.71;67.43;101570.44;5062392;28;20094;-64
2023/04/02 05:27:45;;;;;;;8.38;6.93;;;;;;;7.73;67.46;101565.53;5073174;28;20037;-64
2023/04/02 05:30:19;;;;;;;7.28;6.18;;;;;;;7.67;66.68;101574.72;5059200;28;20021;-64
2023/04/02 05:32:56;;;;;;;7.93;6.43;;;;;;;7.65;67.07;101582.34;5068838;28;20200;-64
2023/04/02 05:35:26;;;;;;;7.82;6.47;;;;;;;7.63;65.91;101580.66;5073291;28;20040;-64
2023/04/02 05:37:52;;;;;;;7.45;6.70;;;;;;;7.60;66.04;101592.13;5061784;28;20478;-64
2023/04/02 05:40:29;;;;;;;7.32;6.28;;;;;;;7.54;66.24;101592.97;5084150;28;20032;-64
2023/04/02 05:42:57;;;;;;;6.68;6.03;;;;;;;7.54;66.84;101590.22;5058676;28;20036;-64
2023/04/02 05:45:30;;;;;;;10.30;7.05;;;;;;;7.55;66.60;101600.22;5070611;28;20036;-64
2023/04/02 05:48:00;;;;;;;7.65;6.82;;;;;;;7.52;65.88;101605.31;5064244;28;20078;-63
2023/04/02 05:50:35;;;;;;;8.00;6.88;;;;;;;7.54;66.32;101605.94;5060626;28;20040;-64
2023/04/02 05:53:36;;;;;;;8.50;7.70;;;;;;;7.58;66.85;101616.38;5060917;28;20024;-64
2023/04/02 05:56:11;;;;;;;9.57;7.22;;;;;;;7.60;66.64;101625.28;5048761;28;20144;-64
2023/04/02 05:58:48;;;;;;;8.85;8.02;;;;;;;7.62;66.28;101627.81;5056807;28;20033;-64
2023/04/02 06:01:48;;;;;;;10.18;7.93;;;;;;;7.63;66.89;101641.44;5052901;28;20063;-64
2023/04/02 06:04:24;;;;;;;8.48;7.68;;;;;;;7.65;67.27;101643.13;5070257;28;20036;-64
2023/04/02 06:06:56;;;;;;;8.15;7.35;;;;;;;7.61;66.40;101651.84;5067272;28;20550;-64
2023/04/02 06:09:40;;;;;;;;;;;;;;;7.78;67.21;101654.16;5067939;28;20070;-64
2023/04/02 06:12:23;;;;;;;9.45;7.85;;;;;;;7.67;66.87;101654.84;5067310;28;20009;-64
2023/04/02 06:14:51;;;;;;;11.10;9.60;;;;;;;7.64;66.46;101658.88;5062214;28;20077;-63
2023/04/02 06:17:18;;;;;;;10.77;8.95;;;;;;;7.55;66.24;101677.59;5072311;28;20021;-63
2023/04/02 06:19:46;;;;;;;10.82;8.35;;;;;;;7.54;66.29;101673.09;5071558;28;20036;-64
2023/04/02 06:22:31;;;;;;;10.00;8.60;;;;;;;7.55;65.98;101680.34;5062451;28;20033;-64
2023/04/02 06:25:05;;;;;;;9.57;8.40;;;;;;;7.52;66.18;101694.56;5070684;28;20040;-64
2023/04/02 06:27:32;;;;;;;11.45;8.30;;;;;;;7.49;65.59;101700.50;5051990;28;20044;-64
2023/04/02 06:30:04;;;;;;;10.82;8.45;;;;;;;7.52;65.56;101699.25;5062381;28;20028;-64
2023/04/02 06:32:30;;;;;;;10.85;8.13;;;;;;;7.51;64.73;101703.94;5059907;28;20052;-64
2023/04/02 06:34:55;;;;;;;10.85;8.43;;;;;;;7.46;64.86;101714.75;5069269;28;20067;-64
2023/04/02 06:37:38;;;;;;;12.88;8.68;;;;;;;7.44;64.72;101718.81;5059238;28;20024;-64
2023/04/02 06:40:06;;;;;;;;;;;;;;;7.54;66.10;101720.06;5068673;28;20043;-64
2023/04/02 06:42:38;;;;;;;8.50;7.22;;;;;;;7.39;64.83;101722.19;5062516;28;19974;-64
2023/04/02 06:45:04;;;;;;;10.90;7.38;;;;;;;7.35;64.61;101729.22;5066449;28;20448;-64
2023/04/02 06:47:38;;;;;;;12.02;7.43;;;;;;;7.35;63.95;101726.44;5071059;28;20463;-65
2023/04/02 06:50:25;;;;;;;11.15;7.50;;;;;;;7.40;64.59;101750.66;5069078;28;20090;-65
2023/04/02 06:52:56;;;;;;;11.43;6.57;;;;;;;7.32;63.69;101749.81;5060580;28;20032;-65
2023/04/02 06:55:34;;;;;;;10.13;6.30;;;;;;;7.30;64.71;101757.44;5065242;28;20035;-66
2023/04/02 06:57:59;;;;;;;10.27;6.78;;;;;;;7.23;63.58;101764.00;5067393;28;20031;-65
2023/04/02 07:00:41;;;;;;;9.63;6.85;;;;;;;7.26;64.29;101777.38;5070770;28;20024;-64
2023/04/02 07:03:28;;;;;;;10.18;6.65;;;;;;;7.27;64.16;101770.81;5051558;28;20025;-68
2023/04/02 07:05:53;;;;;;;10.35;6.55;;;;;;;7.25;63.83;101781.22;5051027;28;20046;-66
2023/04/02 07:08:19;;;;;;;10.05;6.20;;;;;;;7.24;63.70;101793.34;5069131;28;20442;-66
2023/04/02 07:10:46;;;;;;;10.50;6.25;;;;;;;7.19;63.06;101796.72;5060601;28;20490;-66
2023/04/02 07:13:17;;;;;;;7.50;5.82;;;;;;;7.22;63.17;101807.31;5076413;28;20048;-67
2023/04/02 07:15:48;;;;;;;9.15;5.75;;;;;;;7.26;63.26;101816.06;5060173;28;20435;-65
2023/04/02 07:18:27;;;;;;;7.97;5.45;;;;;;;7.25;63.45;101812.44;5081324;28;20033;-66
2023/04/02 07:20:53;;;;;;;6.07;5.13;;;;;;;7.27;62.96;101817.75;5068128;28;20032;-65
2023/04/02 07:23:20;;;;;;;10.00;5.50;;;;;;;7.29;63.29;101829.44;5059819;28;20031;-65
2023/04/02 07:25:46;;;;;;;9.20;5.20;;;;;;;7.34;63.82;101826.91;5073523;28;20043;-66
2023/04/02 07:28:13;;;;;;;9.68;5.38;;;;;;;7.36;63.12;101833.09;5063460;28;20036;-62
2023/04/02 07:30:39;;;;;;;7.07;5.00;;;;;;;7.36;62.87;101838.63;5063239;28;20028;-66
2023/04/02 07:33:05;;;;;;;7.93;4.93;;;;;;;7.34;63.19;101847.09;5078458;28;20055;-66
2023/04/02 07:35:30;;;;;;;7.03;4.70;;;;;;;7.34;62.64;101855.38;5067141;28;20402;-67
2023/04/02 07:37:55;;;;;;;7.65;4.80;;;;;;;7.29;61.50;101868.97;5070330;28;20558;-63
2023/04/02 07:40:22;;;;;;;8.27;4.53;;;;;;;7.23;61.84;101864.28;5072194;28;20036;-63
2023/04/02 07:42:48;;;;;;;7.63;4.93;;;;;;;7.22;62.54;101861.72;5064016;28;20063;-63
2023/04/02 07:45:14;;;;;;;7.22;4.15;;;;;;;7.25;62.39;101864.06;5067565;28;20071;-64
2023/04/02 07:47:39;;;;;;;6.88;4.43;;;;;;;7.23;62.01;101861.53;5079022;28;20035;-63
2023/04/02 07:50:07;;;;;;;7.03;4.32;;;;;;;7.25;62.00;101870.44;5064893;28;20029;-64
2023/04/02 07:52:32;;;;;;;6.63;3.80;;;;;;;7.24;61.77;101871.50;5064119;28;20024;-65
2023/04/02 07:54:57;;;;;;;6.43;3.78;;;;;;;7.17;62.05;101875.28;5066361;28;20039;-66
2023/04/02 07:57:23;;;;;;;6.47;3.63;;;;;;;7.10;61.38;101875.25;5060397;28;20379;-67
2023/04/02 07:59:48;;;;;;;7.85;4.30;;;;;;;7.06;61.12;101880.31;5065960;28;20141;-66
2023/04/02 08:02:21;;;;;;;5.50;3.72;;;;;;;7.10;62.04;101878.84;5053827;28;20032;-61
2023/04/02 08:04:47;;;;;;;;;;;;;;;7.26;63.17;101887.84;5063028;28;20028;-64
2023/04/02 08:07:13;;;;;;;4.90;3.40;;;;;;;7.15;61.99;101900.31;5071330;28;19920;-65
2023/04/02 08:09:38;;;;;;;7.28;3.10;;;;;;;7.16;61.19;101903.97;5072292;28;20027;-64
2023/04/02 08:12:04;;;;;;;10.00;3.85;;;;;;;7.12;61.87;101904.38;5076159;28;20047;-64
2023/04/02 08:14:29;;;;;;;7.88;3.53;;;;;;;7.12;60.68;101909.03;5082971;28;20027;-65
2023/04/02 08:16:55;;;;;;;7.57;3.45;;;;;;;7.12;61.19;101918.16;5071322;28;20027;-65
2023/04/02 08:19:23;;;;;;;8.65;3.30;;;;;;;7.08;61.06;101916.88;5063702;28;20422;-64
2023/04/02 08:21:53;;;;;;;5.60;3.42;;;;;;;7.10;62.05;101917.50;5061809;28;20121;-64
2023/04/02 08:24:18;;;;;;;6.55;3.28;;;;;;;7.18;61.33;101921.16;5048227;28;20474;-67
2023/04/02 08:26:45;;;;;;;4.20;3.10;;;;;;;7.17;61.60;101925.84;5070814;28;20115;-67
2023/04/02 08:29:10;;;;;;;12.02;3.88;;;;;;;7.25;62.05;101933.09;5052034;28;20025;-67
2023/04/02 08:31:36;;;;;;;6.28;3.03;;;;;;;7.24;61.41;101943.28;5061763;28;20754;-68
2023/04/02 08:34:02;;;;;;;5.35;2.97;;;;;;;7.24;61.04;101946.06;5074261;28;20055;-68
2023/04/02 08:36:35;;;;;;;8.40;3.38;;;;;;;7.24;61.34;101953.50;5061856;28;20505;-68
2023/04/02 08:39:01;;;;;;;5.78;3.15;;;;;;;7.21;61.78;101953.91;5064965;28;20106;-67
2023/04/02 08:41:27;;;;;;;8.55;2.88;;;;;;;7.16;61.07;101961.94;5060082;28;20016;-68
2023/04/02 08:44:11;;;;;;;6.40;3.00;;;;;;;7.18;62.16;101970.84;5063945;28;20028;-68
2023/04/02 08:46:51;;;;;;;5.65;3.30;;;;;;;7.20;62.03;101972.38;5070503;28;20035;-68
2023/04/02 08:49:38;;;;;;;4.78;3.10;;;;;;;7.18;61.48;101981.91;5081400;28;20035;-68
2023/04/02 08:52:04;;;;;;;6.97;2.80;;;;;;;7.13;60.87;101988.88;5063184;28;20080;-68
2023/04/02 08:54:36;;;;;;;7.35;3.30;;;;;;;7.11;60.22;101982.75;5062968;28;20096;-68
2023/04/02 08:57:30;;;;;;;7.78;3.58;;;;;;;7.16;61.83;101992.31;5063843;28;20040;-68
2023/04/02 09:00:08;;;;;;;5.30;2.67;;;;;;;7.07;60.64;101999.88;5062173;28;20050;-68
2023/04/02 09:02:42;;;;;;;5.55;2.88;;;;;;;7.05;61.80;102008.38;5073199;28;20575;-68
2023/04/02 09:05:17;;;;;;;5.68;2.83;;;;;;;7.06;62.02;102014.75;5065579;28;20516;-68
2023/04/02 09:07:42;;;;;;;3.28;2.90;;;;;;;7.09;61.50;102037.28;5067041;28;20032;-68
2023/04/02 09:10:17;;;;;;;3.88;2.75;;;;;;;7.05;61.29;102032.38;5065055;28;20490;-67
2023/04/02 09:12:49;;;;;;;4.63;3.10;;;;;;;7.01;60.59;102029.16;5059194;28;20040;-67
2023/04/02 09:15:34;;;;;;;4.63;2.70;;;;;;;7.01;61.15;102034.69;5069108;28;20028;-68
2023/04/02 09:18:11;;;;;;;6.10;2.72;;;;;;;6.96;60.91;102025.31;5066327;28;20431;-69
2023/04/02 09:20:40;;;;;;;3.95;2.78;;;;;;;6.93;60.51;102040.34;5068988;28;20035;-68
2023/04/02 09:23:12;;;;;;;5.20;2.88;;;;;;;6.93;61.49;102047.78;5059864;28;20039;-68
2023/04/02 09:25:44;;;;;;;5.18;2.63;;;;;;;6.99;61.90;102046.97;5068689;28;20490;-68
2023/04/02 09:28:10;;;;;;;5.87;2.57;;;;;;;6.98;61.17;102062.69;5068977;28;20545;-68
2023/04/02 09:31:00;;;;;;;5.10;2.40;;;;;;;7.04;61.70;102066.56;5081850;28;20058;-68
2023/04/02 09:33:41;;;;;;;5.25;2.80;;;;;;;7.03;61.78;102078.63;5069859;28;20028;-69
2023/04/02 09:36:36;;;;;;;5.63;2.80;;;;;;;7.01;61.23;102078.00;5054879;28;20037;-68
2023/04/02 09:39:08;;;;;;;3.55;2.60;;;;;;;6.99;61.11;102080.09;5071513;28;20045;-67
2023/04/02 09:41:35;;;;;;;5.85;2.88;;;;;;;7.01;61.51;102080.75;5070797;28;20361;-67
2023/04/02 09:44:23;;;;;;;6.43;3.00;;;;;;;7.05;61.27;102085.69;5071791;28;20060;-67
2023/04/02 09:46:52;;;;;;;5.57;2.85;;;;;;;7.05;61.58;102085.69;5064570;28;20066;-67
2023/04/02 09:49:18;;;;;;;4.93;3.35;;;;;;;7.07;60.92;102094.63;5068989;28;20387;-66
2023/04/02 09:51:43;;;;;;;5.05;2.80;;;;;;;7.06;61.39;102094.81;5063046;28;20109;-73
2023/04/02 09:54:15;;;;;;;4.07;2.75;;;;;;;7.04;61.77;102100.53;5063106;28;21137;-70
2023/04/02 09:57:23;;;;;;;5.75;2.90;;;;;;;7.14;61.67;102109.31;5059596;28;20433;-73
2023/04/02 10:00:15;;;;;;;6.63;3.03;;;;;;;7.15;61.75;102112.94;5070651;28;20575;-67
2023/04/02 10:02:41;;;;;;;3.95;2.65;;;;;;;7.09;60.93;102109.06;5068151;28;20036;-66
2023/04/02 10:05:19;;;;;;;5.30;3.00;;;;;;;7.12;61.51;102119.72;5072358;28;20028;-66
2023/04/02 10:07:47;;;;;;;7.65;3.30;;;;;;;7.07;61.62;102125.00;5058094;28;20039;-67
2023/04/02 10:10:35;;;;;;;5.53;2.70;;;;;;;7.14;61.85;102128.63;5064304;28;20066;-67
2023/04/02 10:13:05;;;;;;;6.25;2.92;;;;;;;7.11;62.28;102126.31;5058901;28;20124;-67
2023/04/02 10:15:38;;;;;;;5.50;2.70;;;;;;;7.13;61.47;102128.84;5068052;28;20079;-66
2023/04/02 10:18:14;;;;;;;4.10;2.92;;;;;;;7.16;62.57;102141.41;5064179;28;20025;-66
2023/04/02 10:20:42;;;;;;;7.57;3.25;;;;;;;7.18;61.88;102131.00;5062867;28;20032;-65
2023/04/02 10:23:17;;;;;;;4.05;2.95;;;;;;;7.18;61.59;102136.53;5068391;28;20017;-66
2023/04/02 10:26:03;;;;;;;5.43;2.90;;;;;;;7.13;61.86;102143.50;5063650;28;20029;-69
2023/04/02 10:28:43;;;;;;;5.95;2.95;;;;;;;7.07;61.23;102149.84;5049379;28;20040;-68
2023/04/02 10:31:32;;;;;;;6.38;2.83;;;;;;;7.11;62.23;102151.16;5062594;28;20056;-67
2023/04/02 10:34:01;;;;;;;4.55;2.72;;;;;;;7.09;60.99;102149.63;5050822;28;20086;-68
2023/04/02 10:36:56;;;;;;;4.95;2.67;;;;;;;7.11;61.89;102162.19;5062657;28;20028;-62
2023/04/02 10:39:38;;;;;;;5.32;2.97;;;;;;;7.07;62.02;102168.28;5057796;28;20090;-67
2023/04/02 10:42:09;;;;;;;5.20;2.90;;;;;;;7.14;61.98;102172.81;5057047;28;20554;-67
2023/04/02 10:45:12;;;;;;;4.30;2.85;;;;;;;7.19;62.14;102175.00;5070419;28;20039;-66
2023/04/02 10:47:45;;;;;;;5.00;2.85;;;;;;;7.19;61.33;102183.31;5062783;28;20408;-65
2023/04/02 10:50:35;;;;;;;3.92;2.67;;;;;;;7.17;61.03;102185.38;5066008;28;20136;-66
2023/04/02 10:53:27;;;;;;;5.18;2.60;;;;;;;7.16;61.60;102191.97;5067234;28;20081;-71
2023/04/02 10:55:57;;;;;;;3.80;2.80;;;;;;;7.10;61.16;102193.59;5063164;28;20033;-68
2023/04/02 10:58:25;;;;;;;5.38;2.72;;;;;;;7.06;61.04;102195.03;5069810;28;20724;-64
2023/04/02 11:00:58;;;;;;;4.90;2.88;;;;;;;7.09;61.27;102188.28;5065096;28;20112;-64
2023/04/02 11:03:38;;;;;;;6.05;3.60;;;;;;;7.08;61.56;102184.69;5063357;28;20476;-69
2023/04/02 11:06:45;;;;;;;6.93;3.20;;;;;;;7.10;61.57;102199.13;5069132;28;20056;-73
2023/04/02 11:09:17;;;;;;;4.22;2.90;;;;;;;7.05;61.42;102207.16;5062728;28;20071;-67
2023/04/02 11:11:45;;;;;;;5.28;3.17;;;;;;;7.07;61.67;102201.41;5080446;28;20036;-69
2023/04/02 11:14:23;;;;;;;7.00;2.80;;;;;;;7.12;61.90;102212.75;5065927;28;20174;-72
2023/04/02 11:16:50;;;;;;;5.18;3.38;;;;;;;7.16;61.89;102218.72;5062791;28;20556;-71
2023/04/02 11:19:15;;;;;;;5.32;2.80;;;;;;;7.18;61.13;102213.84;5056037;28;20040;-71
2023/04/02 11:21:56;;;;;;;3.42;2.53;;;;;;;7.22;61.17;102223.44;5054005;28;20028;-71
2023/04/02 11:24:36;;;;;;;6.93;3.50;;;;;;;7.22;61.43;102235.34;5070458;28;20039;-72
2023/04/02 11:27:10;;;;;;;3.85;3.17;;;;;;;7.28;61.70;102231.81;5062755;28;20032;-71
2023/04/02 11:29:44;;;;;;;4.60;2.80;;;;;;;7.31;60.86;102238.81;5063390;28;20029;-71
2023/04/02 11:32:23;;;;;;;4.95;2.90;;;;;;;7.29;61.04;102247.31;5051785;28;20033;-72
2023/04/02 11:34:49;;;;;;;3.83;2.67;;;;;;;7.23;60.73;102252.75;5063569;28;20039;-74
2023/04/02 11:37:37;;;;;;;5.30;3.00;;;;;;;7.27;61.64;102243.03;5064108;28;20089;-67
2023/04/02 11:40:14;;;;;;;6.07;3.13;;;;;;;7.29;61.32;102250.09;5058221;28;20062;-71
2023/04/02 11:42:47;;;;;;;5.10;2.75;;;;;;;7.26;60.88;102252.38;5069037;28;20028;-67
2023/04/02 11:45:27;;;;;;;6.60;2.78;;;;;;;7.25;61.06;102250.69;5078730;28;20040;-67
2023/04/02 11:47:58;;;;;;;4.72;2.97;;;;;;;7.30;61.33;102254.53;5068886;28;20055;-67
2023/04/02 11:50:27;;;;;;;7.15;2.90;;;;;;;7.35;61.47;102256.75;5068971;28;20025;-67
2023/04/02 11:52:53;;;;;;;4.93;3.30;;;;;;;7.43;61.41;102258.47;5066968;28;20056;-67
2023/04/02 11:55:31;;;;;;;4.88;2.85;;;;;;;7.44;61.04;102261.06;5069286;28;20032;-68
2023/04/02 11:58:03;;;;;;;5.75;3.08;;;;;;;7.47;60.55;102263.44;5062989;28;20435;-68
2023/04/02 12:00:46;;;;;;;5.75;2.90;;;;;;;7.42;60.33;102267.84;5067899;28;20102;-67
2023/04/02 12:03:34;;;;;;;4.13;2.53;;;;;;;7.43;60.69;102275.94;5063207;28;20405;-67
2023/04/02 12:06:09;;;;;;;4.97;2.70;;;;;;;7.42;60.41;102287.16;5048019;28;20024;-67
2023/04/02 12:08:53;;;;;;;4.97;2.92;;;;;;;7.37;60.55;102293.28;5054407;28;20055;-68
2023/04/02 12:11:33;;;;;;;6.70;2.67;;;;;;;7.42;61.11;102292.69;5069317;28;20060;-68